Time;durP1;ratioP1;P1;durP2;ratioP2;P2;SDS_P1;SDS_P2;PMS_P1;PMS_P2;Temp;Humidity;BMP_temperature;BMP_pressure;BME280_temperature;BME280_humidity;BME280_pressure;Samples;Min_cycle;Max_cycle;Signal;HPM_P1;HPM_P2
2023/07/20 00:01:19;;;;;;;4.30;2.93;;;;;;;17.61;100.00;101383.06;5130644;28;19909;-37
2023/07/20 00:03:44;;;;;;;;;;;;;;;17.72;100.00;101398.47;5131541;28;20278;-37
2023/07/20 00:06:10;;;;;;;6.07;3.47;;;;;;;17.61;100.00;101394.00;5130933;28;19914;-37
2023/07/20 00:08:36;;;;;;;;;;;;;;;17.71;100.00;101383.16;5130960;27;20624;-37
2023/07/20 00:11:01;;;;;;;4.55;2.72;;;;;;;17.60;100.00;101386.88;5119284;28;20394;-37
2023/07/20 00:13:27;;;;;;;;;;;;;;;17.72;100.00;101383.97;5117443;28;20026;-37
2023/07/20 00:15:53;;;;;;;4.85;3.42;;;;;;;17.54;100.00;101376.19;5117283;28;20339;-37
2023/07/20 00:18:21;;;;;;;7.63;3.58;;;;;;;17.55;100.00;101381.38;5117094;28;20020;-37
2023/07/20 00:20:47;;;;;;;5.82;3.85;;;;;;;17.58;100.00;101382.78;5116970;28;20019;-37
2023/07/20 00:23:12;;;;;;;5.75;4.15;;;;;;;17.47;100.00;101399.13;5116831;28;20042;-37
2023/07/20 00:25:37;;;;;;;7.40;4.57;;;;;;;17.50;100.00;101387.66;5117328;28;20015;-37
2023/07/20 00:28:03;;;;;;;;;;;;;;;17.62;100.00;101389.38;5117280;28;20023;-37
2023/07/20 00:30:28;;;;;;;7.05;4.32;;;;;;;17.43;100.00;101397.19;5116368;27;19953;-37
2023/07/20 00:32:53;;;;;;;;;;;;;;;17.60;100.00;101389.63;5117393;28;20019;-37
2023/07/20 00:35:19;;;;;;;7.13;3.87;;;;;;;17.50;100.00;101387.66;5116594;28;19911;-37
2023/07/20 00:37:44;;;;;;;;;;;;;;;17.60;100.00;101392.34;5116684;28;20256;-36
2023/07/20 00:40:10;;;;;;;5.93;3.65;;;;;;;17.49;100.00;101390.66;5116374;28;19914;-36
2023/07/20 00:42:35;;;;;;;;;;;;;;;17.57;100.00;101390.16;5117156;28;20023;-36
2023/07/20 00:45:00;;;;;;;6.80;4.28;;;;;;;17.47;100.00;101388.19;5116687;28;19998;-36
2023/07/20 00:47:26;;;;;;;;;;;;;;;17.55;100.00;101392.31;5117094;28;20019;-37
2023/07/20 00:49:52;;;;;;;6.38;4.25;;;;;;;17.35;100.00;101384.00;5116241;28;19903;-36
2023/07/20 00:52:19;;;;;;;6.68;4.28;;;;;;;17.34;100.00;101385.91;5116018;27;20023;-36
2023/07/20 00:54:45;;;;;;;6.70;4.43;;;;;;;17.33;100.00;101388.91;5116290;28;20035;-37
2023/07/20 00:57:14;;;;;;;5.55;4.00;;;;;;;17.32;100.00;101395.44;5116581;28;20370;-37
2023/07/20 00:59:39;;;;;;;4.70;3.92;;;;;;;17.25;100.00;101395.69;5115743;28;20048;-37
2023/07/20 01:02:04;;;;;;;8.55;5.28;;;;;;;17.31;100.00;101397.38;5116650;28;20084;-37
2023/07/20 01:04:30;;;;;;;;;;;;;;;17.41;100.00;101393.88;5115321;28;20020;-37
2023/07/20 01:07:12;;;;;;;5.40;4.07;;;;;;;17.13;100.00;101384.94;5116305;28;19907;-37
2023/07/20 01:09:45;;;;;;;7.65;4.95;;;;;;;17.16;100.00;101387.16;5116520;28;20038;-37
2023/07/20 01:12:25;;;;;;;6.60;4.55;;;;;;;17.20;100.00;101399.19;5116003;28;20139;-37
2023/07/20 01:14:51;;;;;;;8.75;4.95;;;;;;;17.14;100.00;101394.78;5116710;28;20027;-36
2023/07/20 01:17:16;;;;;;;6.40;4.22;;;;;;;17.16;100.00;101402.72;5115880;28;20031;-37
2023/07/20 01:19:41;;;;;;;5.57;3.85;;;;;;;17.08;100.00;101401.31;5115366;28;20087;-37
2023/07/20 01:22:07;;;;;;;;;;;;;;;17.25;100.00;101398.41;5115469;28;20023;-37
2023/07/20 01:25:09;;;;;;;5.20;3.80;;;;;;;17.14;100.00;101405.72;5115394;28;20003;-37
2023/07/20 01:27:47;;;;;;;6.43;4.30;;;;;;;17.11;100.00;101405.41;5116393;28;20068;-36
2023/07/20 01:30:27;;;;;;;5.78;4.93;;;;;;;16.96;100.00;101398.72;5115802;28;20055;-36
2023/07/20 01:32:55;;;;;;;7.80;4.90;;;;;;;16.95;100.00;101390.81;5116281;28;20015;-36
2023/07/20 01:35:26;;;;;;;6.20;5.00;;;;;;;16.94;100.00;101411.03;5115108;28;20102;-36
2023/07/20 01:37:53;;;;;;;7.47;4.82;;;;;;;16.95;100.00;101401.72;5115638;28;20019;-36
2023/07/20 01:40:21;;;;;;;5.78;5.22;;;;;;;16.95;100.00;101415.41;5115273;28;20513;-36
2023/07/20 01:42:47;;;;;;;7.57;5.70;;;;;;;16.81;100.00;101409.53;5115614;28;20032;-36
2023/07/20 01:45:12;;;;;;;7.63;5.82;;;;;;;16.78;100.00;101411.94;5115223;28;20405;-36
2023/07/20 01:47:38;;;;;;;;;;;;;;;16.89;100.00;101409.06;5115708;28;20050;-36
2023/07/20 01:50:03;;;;;;;9.23;5.82;;;;;;;16.70;100.00;101408.56;5114816;28;19904;-36
2023/07/20 01:52:29;;;;;;;;;;;;;;;16.85;100.00;101412.56;5116389;28;20034;-36
2023/07/20 01:54:54;;;;;;;9.18;6.43;;;;;;;16.63;100.00;101410.69;5115564;28;19907;-36
2023/07/20 01:57:20;;;;;;;;;;;;;;;16.80;100.00;101415.25;5115831;28;20360;-36
2023/07/20 01:59:45;;;;;;;7.80;6.30;;;;;;;16.65;100.00;101422.19;5115236;28;19956;-36
2023/07/20 02:02:11;;;;;;;;;;;;;;;16.75;100.00;101426.97;5115685;28;20409;-37
2023/07/20 02:04:36;;;;;;;6.63;5.97;;;;;;;16.55;100.00;101413.06;5115147;28;19908;-37
2023/07/20 02:07:01;;;;;;;;;;;;;;;16.63;100.00;101421.59;5115862;28;20038;-37
2023/07/20 02:09:27;;;;;;;6.60;5.90;;;;;;;16.49;100.00;101406.69;5115558;28;19960;-37
2023/07/20 02:11:52;;;;;;;;;;;;;;;16.63;100.00;101423.50;5115478;28;20303;-37
2023/07/20 02:14:17;;;;;;;7.20;6.27;;;;;;;16.50;100.00;101415.75;5115439;28;19907;-37
2023/07/20 02:16:43;;;;;;;;;;;;;;;16.62;100.00;101427.31;5115663;28;20341;-37
2023/07/20 02:19:08;;;;;;;8.13;6.47;;;;;;;16.43;100.00;101415.94;5114536;28;19960;-38
2023/07/20 02:21:33;;;;;;;;;;;;;;;16.59;100.00;101431.41;5115584;28;20256;-37
2023/07/20 02:23:59;;;;;;;7.60;6.22;;;;;;;16.53;100.00;101423.41;5114493;27;19904;-37
2023/07/20 02:26:25;;;;;;;;;;;;;;;16.62;100.00;101430.88;5115485;28;20113;-37
2023/07/20 02:28:50;;;;;;;8.25;5.82;;;;;;;16.53;100.00;101437.88;5114685;28;20362;-37
2023/07/20 02:31:16;;;;;;;;;;;;;;;16.62;100.00;101430.88;5114854;28;20024;-37
2023/07/20 02:33:41;;;;;;;6.93;6.27;;;;;;;16.47;100.00;101433.44;5114173;28;19903;-36
2023/07/20 02:36:06;;;;;;;;;;;;;;;16.59;100.00;101438.75;5115093;28;20285;-36
2023/07/20 02:38:31;;;;;;;14.77;7.23;;;;;;;16.48;100.00;101435.09;5113963;28;19961;-36
2023/07/20 02:40:57;;;;;;;;;;;;;;;16.57;100.00;101438.19;5114737;28;20253;-36
2023/07/20 02:43:22;;;;;;;9.00;6.63;;;;;;;16.27;100.00;101425.84;5113991;28;19904;-36
2023/07/20 02:45:48;;;;;;;;;;;;;;;16.43;100.00;101444.03;5114698;28;20283;-37
2023/07/20 02:48:13;;;;;;;6.88;5.95;;;;;;;16.33;100.00;101433.00;5114783;28;19949;-37
2023/07/20 02:50:38;;;;;;;;;;;;;;;16.42;100.00;101453.31;5114651;28;20141;-36
2023/07/20 02:53:03;;;;;;;7.37;6.13;;;;;;;16.30;100.00;101449.06;5114174;28;19908;-37
2023/07/20 02:55:29;;;;;;;;;;;;;;;16.35;100.00;101455.44;5115166;28;20241;-36
2023/07/20 02:57:54;;;;;;;7.37;5.67;;;;;;;16.19;100.00;101443.47;5114335;28;20362;-36
2023/07/20 03:00:19;;;;;;;;;;;;;;;16.31;100.00;101454.28;5114906;28;20356;-36
2023/07/20 03:02:52;;;;;;;5.72;4.75;;;;;;;16.17;100.00;101461.19;5114367;28;19914;-37
2023/07/20 03:05:18;;;;;;;5.50;4.40;;;;;;;15.98;100.00;101452.50;5114603;28;20032;-37
2023/07/20 03:07:43;;;;;;;;;;;;;;;16.14;100.00;101462.50;5114709;28;20462;-36
2023/07/20 03:10:09;;;;;;;4.82;4.30;;;;;;;15.85;100.00;101469.19;5113630;28;19944;-37
2023/07/20 03:12:34;;;;;;;;;;;;;;;15.97;100.00;101464.47;5114962;28;20034;-37
2023/07/20 03:15:00;;;;;;;5.05;4.18;;;;;;;15.86;100.00;101465.41;5114200;28;19930;-36
2023/07/20 03:17:25;;;;;;;;;;;;;;;15.95;100.00;101467.44;5114670;28;20032;-37
2023/07/20 03:19:51;;;;;;;3.77;3.40;;;;;;;15.94;100.00;101473.97;5113830;28;19908;-36
2023/07/20 03:22:16;;;;;;;;;;;;;;;16.03;100.00;101471.66;5115152;28;20340;-37
2023/07/20 03:24:41;;;;;;;4.73;4.07;;;;;;;15.97;100.00;101475.41;5114127;28;19903;-36
2023/07/20 03:27:06;;;;;;;;;;;;;;;16.05;100.00;101483.13;5114207;28;20258;-36
2023/07/20 03:29:33;;;;;;;3.10;2.70;;;;;;;15.94;100.00;101473.16;5114579;28;19990;-36
2023/07/20 03:31:59;;;;;;;4.40;3.47;;;;;;;15.97;100.00;101478.13;5113772;28;20258;-37
2023/07/20 03:34:25;;;;;;;5.53;3.78;;;;;;;15.80;100.00;101469.94;5114267;28;20032;-36
2023/07/20 03:36:50;;;;;;;;;;;;;;;16.03;100.00;101487.19;5114472;28;20336;-37
2023/07/20 03:39:15;;;;;;;5.50;3.70;;;;;;;15.81;100.00;101482.53;5112730;28;19907;-36
2023/07/20 03:41:40;;;;;;;;;;;;;;;15.97;100.00;101483.56;5114702;28;20123;-37
2023/07/20 03:44:06;;;;;;;4.65;4.20;;;;;;;15.80;100.00;101483.59;5113637;28;20360;-36
2023/07/20 03:46:33;;;;;;;;;;;;;;;15.93;100.00;101482.41;5117383;28;20031;-36
2023/07/20 03:48:59;;;;;;;5.20;4.18;;;;;;;15.74;100.00;101481.88;5117193;28;20374;-36
2023/07/20 03:51:24;;;;;;;;;;;;;;;15.90;100.00;101491.09;5118184;28;20021;-36
2023/07/20 03:53:49;;;;;;;5.20;4.30;;;;;;;15.80;100.00;101489.03;5117987;28;19950;-36
2023/07/20 03:56:15;;;;;;;;;;;;;;;15.89;100.00;101492.19;5118092;28;20015;-36
2023/07/20 03:58:40;;;;;;;6.22;4.57;;;;;;;15.75;100.00;101480.78;5117029;28;19912;-36
2023/07/20 04:01:07;;;;;;;;;;;;;;;15.89;100.00;101489.44;5118020;28;20024;-37
2023/07/20 04:03:32;;;;;;;5.40;4.68;;;;;;;15.78;100.00;101501.28;5116904;28;20270;-37
2023/07/20 04:05:57;;;;;;;;;;;;;;;15.87;100.00;101499.78;5117676;28;20098;-41
2023/07/20 04:08:24;;;;;;;5.82;4.82;;;;;;;15.70;100.00;101497.06;5117365;28;20392;-37
2023/07/20 04:10:49;;;;;;;5.05;4.50;;;;;;;15.70;100.00;101488.88;5116868;28;20055;-36
2023/07/20 04:13:15;;;;;;;;;;;;;;;15.81;100.00;101501.63;5118324;28;20408;-36
2023/07/20 04:15:41;;;;;;;7.53;4.43;;;;;;;15.68;100.00;101510.13;5117364;28;20006;-37
2023/07/20 04:18:07;;;;;;;6.10;4.60;;;;;;;15.72;100.00;101513.19;5116694;28;20030;-36
2023/07/20 04:20:32;;;;;;;;;;;;;;;15.83;100.00;101502.19;5116988;28;20379;-37
2023/07/20 04:22:57;;;;;;;4.67;4.10;;;;;;;15.73;100.00;101496.59;5117494;28;19956;-37
2023/07/20 04:25:22;;;;;;;;;;;;;;;15.88;100.00;101496.00;5116267;28;20269;-37
2023/07/20 04:27:48;;;;;;;4.93;3.97;;;;;;;15.69;100.00;101490.78;5117394;28;20225;-36
2023/07/20 04:30:14;;;;;;;;;;;;;;;15.89;100.00;101503.09;5117629;28;20257;-37
2023/07/20 04:32:44;;;;;;;4.15;3.55;;;;;;;15.70;100.00;101487.00;5116415;28;19904;-36
2023/07/20 04:35:09;;;;;;;4.57;3.63;;;;;;;15.66;100.00;101504.94;5117135;28;20027;-36
2023/07/20 04:37:34;;;;;;;;;;;;;;;15.87;100.00;101500.63;5117135;28;20055;-36
2023/07/20 04:40:00;;;;;;;4.37;3.80;;;;;;;15.68;100.00;101491.88;5116486;28;20006;-37
2023/07/20 04:42:25;;;;;;;;;;;;;;;15.89;100.00;101498.44;5117260;28;20303;-37
2023/07/20 04:44:51;;;;;;;3.57;2.97;;;;;;;15.84;100.00;101492.09;5117013;28;19994;-36
2023/07/20 04:47:16;;;;;;;;;;;;;;;15.96;100.00;101495.56;5116515;28;20338;-37
2023/07/20 04:49:41;;;;;;;4.40;3.40;;;;;;;15.82;100.00;101497.00;5116520;28;19903;-36
2023/07/20 04:52:07;;;;;;;;;;;;;;;15.96;100.00;101504.56;5117348;28;20443;-37
2023/07/20 04:54:32;;;;;;;5.13;3.50;;;;;;;15.80;100.00;101499.13;5116765;28;19925;-37
2023/07/20 04:56:57;;;;;;;;;;;;;;;16.01;100.00;101494.81;5116610;28;20264;-37
2023/07/20 04:59:22;;;;;;;4.57;3.90;;;;;;;15.97;100.00;101491.75;5116335;28;19918;-37
2023/07/20 05:01:48;;;;;;;;;;;;;;;16.12;100.00;101499.31;5116860;28;20051;-37
2023/07/20 05:04:13;;;;;;;4.87;4.20;;;;;;;16.15;100.00;101491.47;5116028;28;19915;-37
2023/07/20 05:06:38;;;;;;;;;;;;;;;16.26;100.00;101497.06;5117000;28;20257;-37
2023/07/20 05:09:05;;;;;;;5.95;5.45;;;;;;;16.07;100.00;101508.25;5115923;28;20351;-36
2023/07/20 05:11:30;;;;;;;6.63;5.80;;;;;;;16.25;100.00;101495.38;5116442;28;20072;-36
2023/07/20 05:13:55;;;;;;;;;;;;;;;16.42;100.00;101504.34;5116800;28;20443;-37
2023/07/20 05:16:21;;;;;;;6.47;5.50;;;;;;;16.27;100.00;101498.72;5115834;28;19931;-36
2023/07/20 05:18:46;;;;;;;;;;;;;;;16.50;100.00;101493.00;5115891;27;20284;-37
2023/07/20 05:21:11;;;;;;;6.70;6.07;;;;;;;16.41;100.00;101494.53;5116080;28;20048;-37
2023/07/20 05:23:37;;;;;;;;;;;;;;;16.54;100.00;101488.66;5116153;28;20051;-36
2023/07/20 05:26:02;;;;;;;6.47;5.93;;;;;;;16.33;100.00;101486.78;5116250;28;20339;-37
2023/07/20 05:28:27;;;;;;;;;;;;;;;16.56;100.00;101497.44;5116008;28;20103;-37
2023/07/20 05:30:53;;;;;;;6.17;5.50;;;;;;;16.52;100.00;101509.94;5115637;28;19908;-36
2023/07/20 05:33:19;;;;;;;;;;;;;;;16.65;100.00;101509.56;5115876;28;20250;-37
2023/07/20 05:35:44;;;;;;;7.13;6.38;;;;;;;16.45;100.00;101510.13;5114792;28;19915;-37
2023/07/20 05:38:09;;;;;;;;;;;;;;;16.68;100.00;101513.66;5115406;28;20456;-37
2023/07/20 05:40:39;;;;;;;5.73;5.23;;;;;;;16.58;100.00;101506.19;5115333;28;19908;-37
2023/07/20 05:43:05;;;;;;;6.88;5.95;;;;;;;16.62;100.00;101523.72;5114055;28;20324;-37
2023/07/20 05:45:30;;;;;;;;;;;;;;;16.82;100.00;101522.31;5116303;28;20043;-37
2023/07/20 05:47:55;;;;;;;6.43;5.60;;;;;;;16.71;100.00;101526.81;5115805;28;20354;-37
2023/07/20 05:50:20;;;;;;;;;;;;;;;16.93;100.00;101529.53;5115820;28;20563;-37
2023/07/20 05:52:46;;;;;;;6.53;5.47;;;;;;;16.85;100.00;101516.38;5114696;28;19929;-37
2023/07/20 05:55:11;;;;;;;;;;;;;;;17.06;100.00;101531.88;5115697;28;20293;-37
2023/07/20 05:57:39;;;;;;;5.87;5.37;;;;;;;17.02;100.00;101529.91;5115322;28;19907;-37
2023/07/20 06:00:06;;;;;;;6.80;5.97;;;;;;;16.99;100.00;101534.00;5115344;28;20771;-37
2023/07/20 06:02:33;;;;;;;6.60;5.82;;;;;;;16.87;100.00;101531.41;5114978;28;20026;-37
2023/07/20 06:04:58;;;;;;;7.03;5.65;;;;;;;16.90;100.00;101533.63;5115150;28;20027;-37
2023/07/20 06:07:23;;;;;;;6.53;5.65;;;;;;;16.91;100.00;101520.78;5114659;28;20111;-37
2023/07/20 06:09:49;;;;;;;;;;;;;;;17.04;100.00;101531.31;5115414;28;20031;-37
2023/07/20 06:12:14;;;;;;;6.40;5.55;;;;;;;16.82;100.00;101527.78;5115094;28;19911;-37
2023/07/20 06:14:39;;;;;;;;;;;;;;;17.02;100.00;101533.47;5115658;28;20054;-37
2023/07/20 06:17:05;;;;;;;6.57;5.90;;;;;;;17.08;100.00;101537.94;5114989;28;20351;-37
2023/07/20 06:19:30;;;;;;;;;;;;;;;17.31;100.00;101535.94;5115461;28;20761;-37
2023/07/20 06:21:55;;;;;;;5.93;5.32;;;;;;;17.13;100.00;101542.59;5114274;28;20331;-37
2023/07/20 06:24:21;;;;;;;;;;;;;;;17.40;100.00;101543.41;5114640;28;20026;-37
2023/07/20 06:26:46;;;;;;;5.65;5.15;;;;;;;17.27;100.00;101535.63;5114481;28;19930;-37
2023/07/20 06:29:11;;;;;;;;;;;;;;;17.48;100.00;101558.53;5114855;28;20027;-37
2023/07/20 06:31:37;;;;;;;4.90;4.35;;;;;;;17.40;100.00;101548.06;5114722;28;20006;-37
2023/07/20 06:34:03;;;;;;;5.18;4.68;;;;;;;17.34;100.00;101549.09;5114383;28;20019;-37
2023/07/20 06:36:29;;;;;;;5.97;4.28;;;;;;;17.41;100.00;101552.44;5114345;28;20016;-37
2023/07/20 06:38:55;;;;;;;;;;;;;;;17.56;100.00;101541.63;5114661;28;20118;-38
2023/07/20 06:41:20;;;;;;;4.55;4.15;;;;;;;17.30;100.00;101547.97;5114145;28;19915;-37
2023/07/20 06:43:46;;;;;;;;;;;;;;;17.49;100.00;101532.84;5114725;28;20102;-38
2023/07/20 06:46:11;;;;;;;4.30;3.90;;;;;;;17.36;100.00;101528.63;5114837;28;19908;-37
2023/07/20 06:48:37;;;;;;;4.13;3.72;;;;;;;17.38;100.00;101537.41;5113723;28;20031;-37
2023/07/20 06:51:02;;;;;;;;;;;;;;;17.48;100.00;101536.66;5114933;28;20037;-37
2023/07/20 06:53:28;;;;;;;3.90;3.42;;;;;;;17.31;100.00;101539.50;5114111;28;19907;-37
2023/07/20 06:55:54;;;;;;;4.18;3.75;;;;;;;17.21;100.00;101532.03;5114501;28;20015;-37
2023/07/20 06:58:21;;;;;;;5.60;3.33;;;;;;;17.49;100.00;101541.88;5113498;28;20096;-37
2023/07/20 07:00:47;;;;;;;3.72;2.95;;;;;;;17.46;100.00;101536.91;5114641;28;20024;-36
2023/07/20 07:03:12;;;;;;;3.45;2.70;;;;;;;17.57;100.00;101542.44;5113990;28;20473;-36
2023/07/20 07:05:37;;;;;;;2.92;2.40;;;;;;;17.66;100.00;101549.09;5114227;28;20016;-36
2023/07/20 07:08:04;;;;;;;;;;;;;;;17.81;100.00;101549.25;5114726;28;20027;-36
2023/07/20 07:10:29;;;;;;;3.70;2.90;;;;;;;17.66;100.00;101547.19;5114205;28;19907;-36
2023/07/20 07:12:54;;;;;;;4.10;2.45;;;;;;;17.57;100.00;101539.72;5114150;28;20077;-37
2023/07/20 07:15:20;;;;;;;;;;;;;;;17.73;100.00;101547.00;5114319;28;20020;-37
2023/07/20 07:17:45;;;;;;;2.50;2.30;;;;;;;17.61;100.00;101551.78;5113942;28;19907;-37
2023/07/20 07:20:10;;;;;;;;;;;;;;;17.81;100.00;101557.44;5115335;28;20309;-37
2023/07/20 07:22:36;;;;;;;3.20;2.40;;;;;;;17.66;100.00;101535.41;5118247;28;20339;-37
2023/07/20 07:25:03;;;;;;;;;;;;;;;17.91;100.00;101556.69;5118470;28;20015;-37
2023/07/20 07:27:28;;;;;;;2.67;2.13;;;;;;;17.71;100.00;101563.66;5117985;28;19908;-37
2023/07/20 07:29:54;;;;;;;;;;;;;;;17.90;100.00;101560.53;5118956;28;20111;-37
2023/07/20 07:32:20;;;;;;;3.38;2.00;;;;;;;17.77;100.00;101555.53;5117641;28;19908;-37
2023/07/20 07:34:47;;;;;;;3.38;2.58;;;;;;;17.71;100.00;101552.72;5117480;28;20024;-37
2023/07/20 07:37:13;;;;;;;3.15;2.80;;;;;;;17.77;100.00;101552.78;5118032;28;20106;-37
2023/07/20 07:39:39;;;;;;;2.85;1.88;;;;;;;17.84;100.00;101556.13;5117598;28;20024;-37
2023/07/20 07:42:05;;;;;;;2.55;1.52;;;;;;;17.78;100.00;101558.00;5117944;28;20027;-37
2023/07/20 07:44:30;;;;;;;1.65;1.10;;;;;;;18.00;100.00;101563.34;5117182;28;20387;-36
2023/07/20 07:46:56;;;;;;;1.70;0.77;;;;;;;18.04;94.45;101567.19;5118093;28;20016;-36
2023/07/20 07:49:21;;;;;;;1.20;0.80;;;;;;;18.15;92.23;101566.16;5117228;28;20068;-36
2023/07/20 07:51:46;;;;;;;;;;;;;;;18.41;94.01;101564.44;5117913;28;20027;-36
2023/07/20 07:54:12;;;;;;;2.23;1.10;;;;;;;18.41;92.09;101564.44;5117704;28;19910;-36
2023/07/20 07:56:37;;;;;;;;;;;;;;;18.67;95.34;101564.53;5117840;28;20282;-36
2023/07/20 07:59:02;;;;;;;1.83;1.17;;;;;;;18.20;90.97;101555.28;5117029;28;19919;-36
2023/07/20 08:01:28;;;;;;;;;;;;;;;18.48;94.42;101572.38;5117764;28;20253;-37
2023/07/20 08:03:53;;;;;;;1.80;1.25;;;;;;;18.36;93.03;101577.28;5116947;28;19903;-37
2023/07/20 08:06:18;;;;;;;2.05;1.50;;;;;;;18.31;95.54;101577.25;5117592;27;20057;-40
2023/07/20 08:08:44;;;;;;;;;;;;;;;18.46;96.64;101578.16;5117284;28;20027;-37
2023/07/20 08:11:10;;;;;;;2.67;1.55;;;;;;;18.30;97.40;101581.03;5117678;28;19957;-37
2023/07/20 08:13:35;;;;;;;2.13;1.58;;;;;;;18.31;98.23;101585.47;5117029;28;20523;-37
2023/07/20 08:16:02;;;;;;;1.83;0.90;;;;;;;18.24;94.29;101586.50;5117005;28;20042;-37
2023/07/20 08:18:28;;;;;;;1.10;0.80;;;;;;;18.04;91.96;101571.84;5115649;28;20020;-37
2023/07/20 08:20:53;;;;;;;3.00;1.10;;;;;;;18.13;92.04;101598.47;5117314;27;20099;-37
2023/07/20 08:23:19;;;;;;;1.60;1.00;;;;;;;18.10;91.59;101589.94;5117098;28;20432;-37
2023/07/20 08:25:45;;;;;;;1.52;0.90;;;;;;;18.03;92.86;101581.97;5116594;27;20024;-38
2023/07/20 08:28:12;;;;;;;0.90;0.85;;;;;;;18.04;93.79;101591.84;5116567;28;20023;-37
2023/07/20 08:30:45;;;;;;;2.42;1.17;;;;;;;18.05;92.84;101589.91;5116919;27;20024;-37
2023/07/20 08:33:12;;;;;;;1.40;0.95;;;;;;;17.99;93.58;101589.88;5116677;28;20455;-37
2023/07/20 08:35:37;;;;;;;1.20;0.90;;;;;;;17.95;92.04;101591.50;5116357;28;20030;-37
2023/07/20 08:38:04;;;;;;;1.50;1.10;;;;;;;18.18;93.69;101594.94;5117158;28;20351;-37
2023/07/20 08:40:33;;;;;;;2.03;1.10;;;;;;;18.51;93.15;101585.56;5116426;28;20045;-37
2023/07/20 08:43:02;;;;;;;1.48;1.05;;;;;;;18.81;90.53;101584.91;5116275;28;20032;-37
2023/07/20 08:45:29;;;;;;;2.47;1.10;;;;;;;18.83;89.03;101587.38;5116492;28;20072;-36
2023/07/20 08:48:00;;;;;;;4.18;1.10;;;;;;;18.59;85.19;101581.47;5116707;28;20110;-37
2023/07/20 08:50:28;;;;;;;1.55;0.95;;;;;;;18.89;85.33;101573.44;5116917;28;20366;-37
2023/07/20 08:52:57;;;;;;;1.58;0.80;;;;;;;19.17;84.18;101579.53;5116095;27;20023;-37
2023/07/20 08:55:23;;;;;;;2.22;0.85;;;;;;;19.51;84.95;101577.13;5116276;28;20020;-37
2023/07/20 08:57:52;;;;;;;2.38;0.77;;;;;;;19.37;80.69;101578.75;5116394;28;20031;-37
2023/07/20 09:00:20;;;;;;;1.20;0.65;;;;;;;19.29;84.35;101569.97;5116679;28;20043;-37
2023/07/20 09:02:47;;;;;;;2.10;0.90;;;;;;;19.41;86.05;101577.91;5116391;28;20019;-37
2023/07/20 09:05:14;;;;;;;1.05;0.70;;;;;;;19.54;83.35;101580.13;5116326;28;20016;-37
2023/07/20 09:07:40;;;;;;;0.88;0.60;;;;;;;19.40;80.76;101575.47;5116575;28;20023;-37
2023/07/20 09:10:06;;;;;;;1.30;0.80;;;;;;;19.36;80.61;101569.69;5115962;27;20447;-37
2023/07/20 09:12:36;;;;;;;1.20;0.50;;;;;;;19.21;81.09;101555.97;5115606;28;20028;-38
2023/07/20 09:15:02;;;;;;;1.38;0.50;;;;;;;19.45;83.22;101583.69;5115870;28;20528;-36
2023/07/20 09:17:27;;;;;;;2.42;0.63;;;;;;;19.40;80.76;101576.28;5116373;28;20051;-36
2023/07/20 09:19:54;;;;;;;1.75;0.75;;;;;;;19.60;82.75;101572.75;5115574;28;20490;-36
2023/07/20 09:22:20;;;;;;;2.50;0.68;;;;;;;19.71;82.93;101568.91;5115708;28;20073;-36
2023/07/20 09:24:45;;;;;;;1.95;0.70;;;;;;;19.73;82.11;101572.22;5115628;28;20027;-36
2023/07/20 09:27:11;;;;;;;1.35;0.90;;;;;;;19.55;82.80;101570.00;5116143;28;20102;-36
2023/07/20 09:29:51;;;;;;;1.17;0.70;;;;;;;19.53;83.96;101570.28;5115316;27;20107;-36
2023/07/20 09:32:21;;;;;;;2.30;0.90;;;;;;;19.46;83.99;101560.66;5115827;28;20032;-37
2023/07/20 09:34:47;;;;;;;0.90;0.60;;;;;;;19.47;82.56;101562.28;5115447;28;20016;-36
2023/07/20 09:37:13;;;;;;;1.73;0.60;;;;;;;19.94;84.03;101555.75;5115468;28;20359;-36
2023/07/20 09:39:45;;;;;;;1.85;0.55;;;;;;;20.03;80.08;101554.09;5115203;28;20438;-36
2023/07/20 09:42:14;;;;;;;1.88;0.90;;;;;;;20.22;78.10;101552.41;5115898;28;20107;-37
2023/07/20 09:44:39;;;;;;;1.35;0.70;;;;;;;20.27;78.77;101554.31;5114808;28;20068;-37
2023/07/20 09:47:05;;;;;;;1.00;0.60;;;;;;;20.27;82.72;101546.88;5115604;28;20378;-37
2023/07/20 09:49:30;;;;;;;0.90;0.70;;;;;;;20.24;80.24;101549.34;5115144;28;20019;-37
2023/07/20 09:51:58;;;;;;;2.22;0.70;;;;;;;20.26;79.27;101542.50;5115710;28;20352;-37
2023/07/20 09:54:24;;;;;;;1.33;0.60;;;;;;;20.30;76.46;101562.81;5115024;27;20023;-37
2023/07/20 09:56:51;;;;;;;1.45;0.68;;;;;;;20.27;77.00;101549.63;5115871;28;20022;-37
2023/07/20 09:59:16;;;;;;;1.70;0.73;;;;;;;20.21;77.22;101550.75;5115274;28;20040;-36
2023/07/20 10:01:43;;;;;;;1.60;0.70;;;;;;;20.25;76.98;101551.84;5115495;28;20083;-36
2023/07/20 10:04:11;;;;;;;2.33;0.65;;;;;;;20.16;75.66;101556.25;5114946;28;20015;-37
2023/07/20 10:06:42;;;;;;;1.02;0.55;;;;;;;20.25;77.47;101559.25;5115383;28;20016;-36
2023/07/20 10:09:10;;;;;;;1.45;0.73;;;;;;;20.25;75.95;101557.34;5114566;28;20034;-37
2023/07/20 10:11:39;;;;;;;1.10;0.50;;;;;;;20.42;75.76;101547.94;5115363;28;20352;-37
2023/07/20 10:14:10;;;;;;;2.70;0.70;;;;;;;20.67;74.20;101550.63;5114732;28;20026;-36
2023/07/20 10:16:39;;;;;;;1.50;0.70;;;;;;;20.95;75.38;101532.63;5114760;28;20127;-37
2023/07/20 10:19:13;;;;;;;2.22;0.57;;;;;;;21.25;77.38;101536.28;5114806;28;20039;-36
2023/07/20 10:21:47;;;;;;;2.05;0.70;;;;;;;21.22;75.07;101543.16;5114323;28;20016;-36
2023/07/20 10:24:13;;;;;;;1.35;0.50;;;;;;;21.44;77.72;101534.50;5114580;28;20028;-38
2023/07/20 10:26:39;;;;;;;1.10;0.68;;;;;;;21.43;72.50;101527.38;5114866;28;20020;-37
2023/07/20 10:29:05;;;;;;;1.27;0.77;;;;;;;21.78;72.57;101530.91;5114784;28;20034;-37
2023/07/20 10:31:32;;;;;;;1.65;0.80;;;;;;;21.30;68.41;101512.31;5114416;28;20016;-37
2023/07/20 10:33:57;;;;;;;1.48;0.63;;;;;;;21.71;70.50;101530.41;5113156;28;20068;-37
2023/07/20 10:36:27;;;;;;;0.80;0.52;;;;;;;21.68;71.01;101534.59;5115272;28;20024;-37
2023/07/20 10:38:54;;;;;;;1.38;0.77;;;;;;;20.91;68.82;101495.78;5113969;28;20471;-37
2023/07/20 10:41:35;;;;;;;1.95;1.02;;;;;;;20.86;70.64;101523.31;5114611;28;20023;-37
2023/07/20 10:44:02;;;;;;;0.75;0.43;;;;;;;20.98;71.80;101528.47;5114083;28;20511;-37
2023/07/20 10:46:39;;;;;;;1.00;0.50;;;;;;;20.96;71.96;101525.19;5114790;28;20023;-37
2023/07/20 10:49:07;;;;;;;2.13;0.77;;;;;;;21.16;71.50;101521.47;5114197;28;20359;-37
2023/07/20 10:51:43;;;;;;;1.05;0.50;;;;;;;21.30;72.58;101520.56;5114019;28;20024;-37
2023/07/20 10:54:15;;;;;;;1.40;0.60;;;;;;;21.36;71.71;101521.34;5113952;28;20019;-37
2023/07/20 10:56:40;;;;;;;1.40;0.60;;;;;;;21.13;68.93;101513.78;5114403;28;20386;-37
2023/07/20 10:59:19;;;;;;;0.75;0.40;;;;;;;21.21;70.16;101514.00;5113713;28;20043;-36
2023/07/20 11:01:45;;;;;;;3.17;0.70;;;;;;;21.11;68.30;101508.59;5114673;28;20023;-36
2023/07/20 11:04:10;;;;;;;0.90;0.50;;;;;;;21.11;70.12;101518.78;5113745;28;20026;-37
2023/07/20 11:06:38;;;;;;;2.05;0.85;;;;;;;20.87;69.48;101508.47;5114566;28;20111;-37
2023/07/20 11:09:16;;;;;;;0.70;0.50;;;;;;;20.83;69.38;101524.69;5114201;28;20345;-37
2023/07/20 11:11:43;;;;;;;2.47;0.65;;;;;;;20.84;69.58;101528.28;5113996;28;20477;-37
2023/07/20 11:14:10;;;;;;;1.05;0.50;;;;;;;20.63;67.96;101524.81;5113913;28;20111;-37
2023/07/20 11:16:40;;;;;;;2.22;0.70;;;;;;;20.60;70.24;101519.88;5113905;28;20023;-37
2023/07/20 11:19:14;;;;;;;0.73;0.45;;;;;;;20.74;72.79;101520.91;5113503;28;20026;-37
2023/07/20 11:21:41;;;;;;;0.90;0.40;;;;;;;20.81;71.92;101515.91;5113630;28;20095;-37
2023/07/20 11:24:09;;;;;;;1.75;0.40;;;;;;;20.89;69.85;101505.44;5113855;28;20028;-37
2023/07/20 11:26:45;;;;;;;1.05;0.63;;;;;;;21.27;68.98;101496.34;5114419;28;20032;-37
2023/07/20 11:29:11;;;;;;;1.13;0.60;;;;;;;21.53;66.97;101498.94;5114169;28;20139;-37
2023/07/20 11:31:41;;;;;;;1.00;0.63;;;;;;;21.65;68.43;101496.63;5114396;28;20106;-37
2023/07/20 11:34:12;;;;;;;2.70;0.60;;;;;;;21.77;67.94;101501.75;5113500;28;20024;-37